createdAt,value
2018-02-19T00:00:15.818Z,-4.60
2018-02-19T00:02:44.123Z,-4.70
2018-02-19T00:05:11.660Z,-4.70
2018-02-19T00:07:39.936Z,-4.70
2018-02-19T00:10:08.227Z,-4.60
2018-02-19T00:12:35.766Z,-4.60
2018-02-19T00:15:03.284Z,-4.60
2018-02-19T00:17:31.630Z,-4.70
2018-02-19T00:19:59.149Z,-4.70
2018-02-19T00:22:26.653Z,-4.80
2018-02-19T00:24:54.179Z,-4.90
2018-02-19T00:27:22.442Z,-5.30
2018-02-19T00:29:49.948Z,-5.30
2018-02-19T00:32:17.475Z,-5.30
2018-02-19T00:34:45.747Z,-5.40
2018-02-19T00:37:14.012Z,-5.40
2018-02-19T00:39:41.551Z,-5.40
2018-02-19T00:42:09.069Z,-5.40
2018-02-19T00:44:36.588Z,-5.30
2018-02-19T00:47:04.119Z,-5.30
2018-02-19T00:49:32.400Z,-5.40
2018-02-19T00:51:59.936Z,-5.50
2018-02-19T00:54:27.500Z,-5.50
2018-02-19T00:56:55.003Z,-5.50
2018-02-19T00:59:22.544Z,-5.50
2018-02-19T01:01:50.087Z,-5.60
2018-02-19T01:04:17.587Z,-5.60
2018-02-19T01:06:45.871Z,-5.80
2018-02-19T01:09:14.147Z,-5.80
2018-02-19T01:11:42.434Z,-5.70
2018-02-19T01:14:09.963Z,-5.70
2018-02-19T01:16:37.455Z,-5.70
2018-02-19T01:19:04.984Z,-5.60
2018-02-19T01:21:33.305Z,-5.50
2018-02-19T01:24:00.832Z,-5.50
2018-02-19T01:26:28.339Z,-5.50
2018-02-19T01:28:55.869Z,-5.50
2018-02-19T01:31:23.371Z,-5.50
2018-02-19T01:33:50.872Z,-5.50
2018-02-19T01:36:19.174Z,-5.50
2018-02-19T01:38:46.702Z,-5.50
2018-02-19T01:41:14.984Z,-5.50
2018-02-19T01:43:42.502Z,-5.50
2018-02-19T01:46:10.005Z,-5.60
2018-02-19T01:48:37.533Z,-5.60
2018-02-19T01:51:05.036Z,-5.60
2018-02-19T01:53:32.550Z,-5.60
2018-02-19T01:56:00.059Z,-5.70
2018-02-19T01:58:27.575Z,-5.90
2018-02-19T02:00:55.847Z,-6.00
2018-02-19T02:03:23.378Z,-6.00
2018-02-19T02:05:50.875Z,-6.00
2018-02-19T02:08:19.155Z,-6.20
2018-02-19T02:10:47.419Z,-6.20
2018-02-19T02:13:15.688Z,-6.20
2018-02-19T02:15:43.212Z,-6.20
2018-02-19T02:18:10.718Z,-6.20
2018-02-19T02:20:38.995Z,-6.30
2018-02-19T02:23:07.279Z,-6.40
2018-02-19T02:25:35.563Z,-6.30
2018-02-19T02:28:03.065Z,-6.40
2018-02-19T02:30:30.604Z,-6.40
2018-02-19T02:32:58.120Z,-6.50
2018-02-19T02:35:27.387Z,-6.30
2018-02-19T02:37:54.911Z,-6.30
2018-02-19T02:40:22.411Z,-6.30
2018-02-19T02:42:49.922Z,-6.30
2018-02-19T02:45:17.439Z,-6.30
2018-02-19T02:47:44.933Z,-6.30
2018-02-19T02:50:12.440Z,-6.30
2018-02-19T02:52:39.964Z,-6.30
2018-02-19T02:55:07.489Z,-6.30
2018-02-19T02:57:35.763Z,-6.20
2018-02-19T03:00:04.060Z,-6.30
2018-02-19T03:02:31.571Z,-6.30
2018-02-19T03:04:59.089Z,-6.40
2018-02-19T03:07:26.616Z,-6.50
2018-02-19T03:09:54.913Z,-6.50
2018-02-19T03:12:22.414Z,-6.60
2018-02-19T03:14:49.931Z,-6.50
2018-02-19T03:17:17.432Z,-6.60
2018-02-19T03:19:44.959Z,-6.60
2018-02-19T03:22:12.504Z,-6.80
2018-02-19T03:24:40.006Z,-6.80
2018-02-19T03:27:07.536Z,-6.80
2018-02-19T03:29:35.057Z,-6.70
2018-02-19T03:32:03.340Z,-6.70
2018-02-19T03:34:31.612Z,-6.70
2018-02-19T03:36:59.900Z,-6.80
2018-02-19T03:39:27.437Z,-6.80
2018-02-19T03:41:55.723Z,-6.80
2018-02-19T03:44:24.041Z,-6.80
2018-02-19T03:46:51.547Z,-6.80
2018-02-19T03:49:19.047Z,-6.70
2018-02-19T03:51:46.591Z,-6.70
2018-02-19T03:54:14.119Z,-6.80
2018-02-19T03:56:41.634Z,-6.70
2018-02-19T03:59:09.156Z,-6.70
2018-02-19T04:01:37.436Z,-6.80
2018-02-19T04:04:05.696Z,-6.80
2018-02-19T04:06:34.004Z,-6.90
2018-02-19T04:09:01.544Z,-7.00
2018-02-19T04:11:29.815Z,-7.10
2018-02-19T04:13:58.108Z,-7.20
2018-02-19T04:16:25.607Z,-7.20
2018-02-19T04:18:53.129Z,-7.20
2018-02-19T04:21:22.242Z,-7.20
2018-02-19T04:23:49.770Z,-7.20
2018-02-19T04:26:18.061Z,-7.20
2018-02-19T04:28:46.320Z,-7.20
2018-02-19T04:31:14.595Z,-7.30
2018-02-19T04:33:42.907Z,-7.20
2018-02-19T04:36:10.423Z,-7.30
2018-02-19T04:38:37.951Z,-7.20
2018-02-19T04:41:06.231Z,-7.20
2018-02-19T04:43:34.515Z,-7.20
2018-02-19T04:46:02.824Z,-7.20
2018-02-19T04:48:33.980Z,-7.20
2018-02-19T04:51:02.364Z,-7.20
2018-02-19T04:53:29.879Z,-7.20
2018-02-19T04:55:57.386Z,-7.30
2018-02-19T04:58:24.911Z,-7.40
2018-02-19T05:00:53.211Z,-7.50
2018-02-19T05:03:20.732Z,-7.50
2018-02-19T05:05:48.254Z,-7.50
2018-02-19T05:08:15.775Z,-7.50
2018-02-19T05:10:44.076Z,-7.50
2018-02-19T05:13:11.591Z,-7.50
2018-02-19T05:15:39.100Z,-7.40
2018-02-19T05:18:06.605Z,-7.40
2018-02-19T05:20:34.143Z,-7.40
2018-02-19T05:23:01.704Z,-7.40
2018-02-19T05:25:29.180Z,-7.30
2018-02-19T05:27:57.490Z,-7.20
2018-02-19T05:30:24.980Z,-7.30
2018-02-19T05:32:52.480Z,-7.30
2018-02-19T05:35:19.988Z,-7.20
2018-02-19T05:37:47.520Z,-7.20
2018-02-19T05:40:15.779Z,-7.10
2018-02-19T05:42:43.280Z,-7.10
2018-02-19T05:45:10.816Z,-7.10
2018-02-19T05:47:39.118Z,-7.10
2018-02-19T05:50:07.354Z,-7.20
2018-02-19T05:52:34.861Z,-7.20
2018-02-19T05:55:02.356Z,-7.20
2018-02-19T05:57:29.864Z,-7.20
2018-02-19T05:59:57.363Z,-7.30
2018-02-19T06:02:24.852Z,-7.30
2018-02-19T06:04:53.119Z,-7.20
2018-02-19T06:07:20.611Z,-7.20
2018-02-19T06:09:48.103Z,-7.20
2018-02-19T06:12:15.608Z,-7.20
2018-02-19T06:14:43.119Z,-7.20
2018-02-19T06:17:10.611Z,-7.20
2018-02-19T06:19:38.893Z,-7.20
2018-02-19T06:22:07.159Z,-7.20
2018-02-19T06:24:34.671Z,-7.20
2018-02-19T06:27:02.182Z,-7.20
2018-02-19T06:29:30.455Z,-7.20
2018-02-19T06:31:57.973Z,-7.20
2018-02-19T06:34:25.470Z,-7.10
2018-02-19T06:36:53.727Z,-7.10
2018-02-19T06:39:21.226Z,-7.10
2018-02-19T06:41:48.716Z,-7.00
2018-02-19T06:44:16.207Z,-6.90
2018-02-19T06:46:43.890Z,-6.90
2018-02-19T06:49:12.149Z,-6.80
2018-02-19T06:51:39.639Z,-6.80
2018-02-19T06:54:07.144Z,-6.80
2018-02-19T06:56:34.634Z,-6.70
2018-02-19T06:59:02.883Z,-6.70
2018-02-19T07:01:30.387Z,-6.70
2018-02-19T07:03:57.877Z,-6.50
2018-02-19T07:06:25.375Z,-6.40
2018-02-19T07:08:53.651Z,-6.10
2018-02-19T07:11:21.911Z,-6.00
2018-02-19T07:13:49.404Z,-6.00
2018-02-19T07:16:16.904Z,-5.80
2018-02-19T07:18:44.421Z,-5.20
2018-02-19T07:21:11.928Z,-4.60
2018-02-19T07:23:39.483Z,-4.40
2018-02-19T07:26:07.008Z,-3.80
2018-02-19T07:28:34.541Z,-2.60
2018-02-19T07:31:02.812Z,-0.50
2018-02-19T07:33:31.083Z,0.30
2018-02-19T07:35:59.367Z,0.90
2018-02-19T07:38:27.643Z,1.50
2018-02-19T07:40:55.151Z,1.40
2018-02-19T07:43:22.655Z,2.00
2018-02-19T07:45:50.922Z,-0.40
2018-02-19T07:48:19.225Z,-1.80
2018-02-19T07:50:46.736Z,-1.90
2018-02-19T07:53:14.263Z,-2.80
2018-02-19T07:55:41.781Z,-3.30
2018-02-19T07:58:10.075Z,-3.50
2018-02-19T08:00:37.579Z,-3.50
2018-02-19T08:03:05.096Z,-3.40
2018-02-19T08:05:32.607Z,-3.40
2018-02-19T08:08:00.101Z,-3.40
2018-02-19T08:10:27.599Z,-3.40
2018-02-19T08:12:55.102Z,-3.30
2018-02-19T08:15:22.591Z,-3.20
2018-02-19T08:17:50.084Z,-3.20
2018-02-19T08:20:17.611Z,-3.10
2018-02-19T08:22:45.108Z,-3.10
2018-02-19T08:25:12.600Z,-3.00
2018-02-19T08:27:40.879Z,-2.80
2018-02-19T08:30:09.141Z,-2.90
2018-02-19T08:32:36.630Z,-2.80
2018-02-19T08:35:04.142Z,-2.80
2018-02-19T08:37:31.643Z,-2.80
2018-02-19T08:39:59.140Z,-2.60
2018-02-19T08:42:26.659Z,-2.50
2018-02-19T08:44:54.155Z,-2.30
2018-02-19T08:47:21.669Z,-2.10
2018-02-19T08:49:49.172Z,-1.80
2018-02-19T08:52:16.679Z,-1.50
2018-02-19T08:54:44.934Z,-1.30
2018-02-19T08:57:13.227Z,-1.10
2018-02-19T08:59:41.483Z,-0.80
2018-02-19T09:02:08.980Z,-0.80
2018-02-19T09:04:36.511Z,-0.50
2018-02-19T09:07:04.789Z,-0.10
2018-02-19T09:09:33.359Z,0.10
2018-02-19T09:12:01.644Z,0.30
2018-02-19T09:14:29.911Z,0.40
2018-02-19T09:16:57.405Z,0.40
2018-02-19T09:19:24.915Z,0.40
2018-02-19T09:21:52.439Z,0.30
2018-02-19T09:24:19.951Z,0.40
2018-02-19T09:26:48.215Z,0.40
2018-02-19T09:29:15.707Z,0.40
2018-02-19T09:31:43.259Z,0.60
2018-02-19T09:34:10.763Z,0.80
2018-02-19T09:36:38.255Z,0.90
2018-02-19T09:39:06.553Z,1.00
2018-02-19T09:41:34.074Z,1.00
2018-02-19T09:44:01.569Z,1.10
2018-02-19T09:46:29.083Z,1.20
2018-02-19T09:48:56.616Z,1.30
2018-02-19T09:51:24.078Z,1.20
2018-02-19T09:53:51.604Z,1.30
2018-02-19T09:56:19.095Z,1.30
2018-02-19T09:58:46.587Z,1.40
2018-02-19T10:01:14.890Z,1.60
2018-02-19T10:03:42.377Z,1.50
2018-02-19T10:06:09.868Z,1.50
2018-02-19T10:08:37.361Z,1.50
2018-02-19T10:11:04.858Z,1.50
2018-02-19T10:13:32.383Z,1.30
2018-02-19T10:15:59.883Z,1.40
2018-02-19T10:18:27.396Z,1.40
2018-02-19T10:20:54.912Z,1.60
2018-02-19T10:23:22.412Z,1.50
2018-02-19T10:25:49.920Z,1.40
2018-02-19T10:28:17.428Z,1.40
2018-02-19T10:30:44.938Z,1.40
2018-02-19T10:33:12.452Z,1.40
2018-02-19T10:35:39.972Z,1.50
2018-02-19T10:38:07.471Z,1.60
2018-02-19T10:40:34.970Z,1.50
2018-02-19T10:43:02.524Z,1.40
2018-02-19T10:45:29.991Z,1.20
2018-02-19T10:47:57.495Z,1.10
2018-02-19T10:50:25.050Z,1.10
2018-02-19T10:52:52.576Z,1.10
2018-02-19T10:55:20.086Z,1.20
2018-02-19T10:57:47.595Z,1.20
2018-02-19T11:00:30.754Z,1.10
2018-02-19T11:02:58.266Z,1.10
2018-02-19T11:05:25.776Z,1.20
2018-02-19T11:07:54.082Z,0.90
2018-02-19T11:10:21.604Z,0.80
2018-02-19T11:12:49.106Z,0.90
2018-02-19T11:15:16.595Z,1.00
2018-02-19T11:17:44.880Z,1.00
2018-02-19T11:20:12.377Z,1.00
2018-02-19T11:22:39.878Z,1.00
2018-02-19T11:25:08.159Z,1.10
2018-02-19T11:27:36.413Z,1.00
2018-02-19T11:30:03.904Z,0.90
2018-02-19T11:32:31.435Z,0.90
2018-02-19T11:34:58.915Z,1.10
2018-02-19T11:37:27.168Z,1.10
2018-02-19T11:39:54.668Z,1.10
2018-02-19T11:42:22.183Z,1.20
2018-02-19T11:44:49.696Z,1.30
2018-02-19T11:47:17.189Z,1.50
2018-02-19T11:49:44.680Z,1.60
2018-02-19T11:52:12.950Z,1.60
2018-02-19T11:54:41.246Z,1.60
2018-02-19T11:57:09.479Z,1.50
2018-02-19T11:59:37.019Z,1.50
2018-02-19T12:02:04.505Z,1.30
2018-02-19T12:04:32.763Z,1.40
2018-02-19T12:07:00.272Z,1.40
2018-02-19T12:09:27.792Z,1.50
2018-02-19T12:11:56.054Z,1.80
2018-02-19T12:14:23.569Z,1.80
2018-02-19T12:16:51.065Z,1.80
2018-02-19T12:19:18.551Z,1.90
2018-02-19T12:21:46.823Z,2.20
2018-02-19T12:24:15.090Z,2.10
2018-02-19T12:26:42.598Z,2.10
2018-02-19T12:29:10.100Z,2.10
2018-02-19T12:31:37.608Z,2.10
2018-02-19T12:34:05.098Z,2.20
2018-02-19T12:36:32.580Z,1.90
2018-02-19T12:39:00.108Z,1.90
2018-02-19T12:41:27.618Z,1.90
2018-02-19T12:43:55.115Z,1.80
2018-02-19T12:46:22.735Z,1.90
2018-02-19T12:48:50.264Z,2.00
2018-02-19T12:51:17.775Z,2.10
2018-02-19T12:53:45.291Z,2.20
2018-02-19T12:56:13.548Z,2.00
2018-02-19T12:58:41.061Z,2.00
2018-02-19T13:01:08.591Z,2.10
2018-02-19T13:03:36.094Z,2.10
2018-02-19T13:06:03.600Z,2.20
2018-02-19T13:08:31.875Z,2.00
2018-02-19T13:11:00.133Z,1.80
2018-02-19T13:13:27.639Z,1.80
2018-02-19T13:15:55.224Z,1.70
2018-02-19T13:18:22.773Z,1.80
2018-02-19T13:20:50.258Z,1.90
2018-02-19T13:23:17.778Z,1.90
2018-02-19T13:25:45.281Z,1.90
2018-02-19T13:28:12.784Z,1.60
2018-02-19T13:30:41.087Z,1.70
2018-02-19T13:33:08.619Z,1.60
2018-02-19T13:35:36.156Z,1.80
2018-02-19T13:38:03.672Z,1.90
2018-02-19T13:40:31.179Z,1.90
2018-02-19T13:42:59.452Z,2.10
2018-02-19T13:45:27.735Z,2.10
2018-02-19T13:47:56.003Z,2.10
2018-02-19T13:50:23.512Z,2.00
2018-02-19T13:52:51.052Z,2.10
2018-02-19T13:55:18.554Z,2.10
2018-02-19T13:57:46.060Z,2.10
2018-02-19T14:00:13.585Z,2.10
2018-02-19T14:02:41.850Z,2.10
2018-02-19T14:05:09.355Z,2.10
2018-02-19T14:07:36.880Z,2.10
2018-02-19T14:10:05.155Z,2.20
2018-02-19T14:12:32.682Z,2.20
2018-02-19T14:15:00.240Z,2.20
2018-02-19T14:17:28.751Z,2.20
2018-02-19T14:19:57.139Z,2.30
2018-02-19T14:22:25.407Z,2.30
2018-02-19T14:24:52.958Z,2.20
2018-02-19T14:27:20.591Z,2.30
2018-02-19T14:29:48.096Z,2.40
2018-02-19T14:32:16.563Z,2.40
2018-02-19T14:34:44.084Z,2.30
2018-02-19T14:37:11.584Z,2.50
2018-02-19T14:39:39.085Z,2.40
2018-02-19T14:42:06.591Z,2.50
2018-02-19T14:44:34.131Z,2.50
2018-02-19T14:47:01.656Z,2.60
2018-02-19T14:49:29.169Z,2.50
2018-02-19T14:51:56.667Z,2.50
2018-02-19T14:54:24.158Z,2.50
2018-02-19T14:56:51.663Z,2.30
2018-02-19T14:59:19.914Z,2.30
2018-02-19T15:01:47.410Z,2.30
2018-02-19T15:04:14.940Z,2.30
2018-02-19T15:06:42.444Z,2.40
2018-02-19T15:09:09.930Z,2.30
2018-02-19T15:11:37.462Z,2.40
2018-02-19T15:14:04.976Z,2.40
2018-02-19T15:19:07.242Z,2.20
2018-02-19T15:21:34.753Z,2.20
2018-02-19T15:24:02.290Z,2.20
2018-02-19T15:26:30.567Z,2.10
2018-02-19T15:28:58.065Z,2.10
2018-02-19T15:31:25.628Z,2.10
2018-02-19T15:33:53.155Z,2.10
2018-02-19T15:36:20.739Z,2.10
2018-02-19T15:38:48.241Z,2.00
2018-02-19T15:41:15.739Z,2.00
2018-02-19T15:43:43.248Z,1.90
2018-02-19T15:46:10.763Z,1.90
2018-02-19T15:48:38.322Z,1.80
2018-02-19T15:51:05.832Z,1.70
2018-02-19T15:53:33.370Z,1.60
2018-02-19T15:56:00.883Z,1.40
2018-02-19T15:58:28.480Z,1.40
2018-02-19T16:00:55.980Z,1.30
2018-02-19T16:03:24.246Z,1.20
2018-02-19T16:05:52.527Z,1.20
2018-02-19T16:08:20.790Z,1.10
2018-02-19T16:10:48.299Z,1.10
2018-02-19T16:13:15.844Z,1.10
2018-02-19T16:15:43.355Z,1.00
2018-02-19T16:18:10.862Z,1.00
2018-02-19T16:20:38.392Z,0.90
2018-02-19T16:23:06.678Z,0.70
2018-02-19T16:25:34.976Z,0.60
2018-02-19T16:28:02.560Z,0.50
2018-02-19T16:30:30.111Z,0.40
2018-02-19T16:32:57.642Z,0.30
2018-02-19T16:35:25.159Z,0.20
2018-02-19T16:37:52.646Z,0.10
2018-02-19T16:40:20.907Z,-0.10
2018-02-19T16:42:49.197Z,-0.20
2018-02-19T16:45:17.454Z,-0.30
2018-02-19T16:47:44.979Z,-0.30
2018-02-19T16:50:12.532Z,-0.40
2018-02-19T16:52:40.033Z,-0.50
2018-02-19T16:55:08.318Z,-0.60
2018-02-19T16:57:36.594Z,-0.60
2018-02-19T17:00:04.084Z,-0.70
2018-02-19T17:02:31.612Z,-0.80
2018-02-19T17:04:59.879Z,-0.90
2018-02-19T17:07:28.147Z,-1.00
2018-02-19T17:09:55.678Z,-1.00
2018-02-19T17:12:23.182Z,-1.10
2018-02-19T17:14:50.694Z,-1.10
2018-02-19T17:17:18.216Z,-1.10
2018-02-19T17:19:45.715Z,-1.10
2018-02-19T17:22:13.225Z,-1.20
2018-02-19T17:24:40.743Z,-1.20
2018-02-19T17:27:08.264Z,-1.20
2018-02-19T17:29:35.754Z,-1.30
2018-02-19T17:32:03.269Z,-1.40
2018-02-19T17:34:30.772Z,-1.40
2018-02-19T17:36:58.280Z,-1.40
2018-02-19T17:39:25.799Z,-1.40
2018-02-19T17:41:54.087Z,-1.40
2018-02-19T17:44:22.347Z,-1.30
2018-02-19T17:46:49.859Z,-1.30
2018-02-19T17:49:17.359Z,-1.40
2018-02-19T17:51:44.856Z,-1.30
2018-02-19T17:54:12.379Z,-1.30
2018-02-19T17:56:40.677Z,-1.30
2018-02-19T17:59:08.968Z,-1.30
2018-02-19T18:01:36.467Z,-1.30
2018-02-19T18:04:03.971Z,-1.20
2018-02-19T18:06:32.235Z,-1.00
2018-02-19T18:09:00.511Z,-1.00
2018-02-19T18:11:28.811Z,-1.00
2018-02-19T18:13:56.311Z,-1.10
2018-02-19T18:16:23.807Z,-1.10
2018-02-19T18:18:52.118Z,-1.10
2018-02-19T18:21:19.630Z,-1.10
2018-02-19T18:23:47.166Z,-1.20
2018-02-19T18:26:14.701Z,-1.20
2018-02-19T18:28:42.190Z,-1.20
2018-02-19T18:31:09.691Z,-1.10
2018-02-19T18:33:37.207Z,-1.20
2018-02-19T18:36:04.720Z,-1.20
2018-02-19T18:38:32.212Z,-1.10
2018-02-19T18:40:59.723Z,-1.20
2018-02-19T18:43:28.030Z,-1.20
2018-02-19T18:45:55.529Z,-1.20
2018-02-19T18:48:23.042Z,-1.20
2018-02-19T18:50:50.543Z,-1.30
2018-02-19T18:53:18.050Z,-1.30
2018-02-19T18:55:45.545Z,-1.40
2018-02-19T18:58:13.043Z,-1.40
2018-02-19T19:00:40.571Z,-1.50
2018-02-19T19:03:08.083Z,-1.50
2018-02-19T19:05:35.594Z,-1.50
2018-02-19T19:08:15.032Z,-1.50
2018-02-19T19:10:51.899Z,-1.50
2018-02-19T19:13:19.458Z,-1.50
2018-02-19T19:15:46.980Z,-1.40
2018-02-19T19:18:14.494Z,-1.40
2018-02-19T19:20:42.791Z,-1.50
2018-02-19T19:23:10.311Z,-1.50
2018-02-19T19:25:37.831Z,-1.50
2018-02-19T19:28:05.331Z,-1.60
2018-02-19T19:30:32.844Z,-1.50
2018-02-19T19:33:00.359Z,-1.50
2018-02-19T19:35:27.869Z,-1.50
2018-02-19T19:37:55.396Z,-1.50
2018-02-19T19:40:22.933Z,-1.50
2018-02-19T19:42:50.436Z,-1.60
2018-02-19T19:45:17.961Z,-1.50
2018-02-19T19:47:46.243Z,-1.60
2018-02-19T19:50:13.734Z,-1.50
2018-02-19T19:52:42.009Z,-1.50
2018-02-19T19:55:09.532Z,-1.50
2018-02-19T19:57:37.032Z,-1.50
2018-02-19T20:00:04.539Z,-1.60
2018-02-19T20:02:32.068Z,-1.70
2018-02-19T20:04:59.580Z,-1.80
2018-02-19T20:07:27.083Z,-1.80
2018-02-19T20:09:54.588Z,-1.90
2018-02-19T20:12:22.117Z,-1.80
2018-02-19T20:14:49.645Z,-1.80
2018-02-19T20:17:17.174Z,-1.80
2018-02-19T20:19:44.691Z,-1.80
2018-02-19T20:22:12.219Z,-1.80
2018-02-19T20:24:39.767Z,-1.80
2018-02-19T20:27:07.291Z,-1.80
2018-02-19T20:29:34.796Z,-1.80
2018-02-19T20:32:03.104Z,-1.90
2018-02-19T20:34:31.387Z,-2.00
2018-02-19T20:37:00.062Z,-2.00
2018-02-19T20:39:27.585Z,-2.00
2018-02-19T20:41:55.088Z,-2.00
2018-02-19T20:44:22.652Z,-2.10
2018-02-19T20:46:50.166Z,-2.10
2018-02-19T20:49:18.451Z,-2.10
2018-02-19T20:51:46.715Z,-2.10
2018-02-19T20:54:14.266Z,-2.10
2018-02-19T20:56:41.798Z,-2.10
2018-02-19T20:59:10.079Z,-2.10
2018-02-19T21:01:37.622Z,-2.10
2018-02-19T21:04:05.219Z,-2.10
2018-02-19T21:06:32.765Z,-2.20
2018-02-19T21:09:00.288Z,-2.10
2018-02-19T21:11:28.569Z,-2.20
2018-02-19T21:13:56.852Z,-2.30
2018-02-19T21:16:24.512Z,-2.30
2018-02-19T21:18:52.015Z,-2.30
2018-02-19T21:21:20.316Z,-2.30
2018-02-19T21:23:47.851Z,-2.30
2018-02-19T21:26:16.376Z,-2.40
2018-02-19T21:28:44.000Z,-2.40
2018-02-19T21:31:11.607Z,-2.40
2018-02-19T21:33:39.885Z,-2.40
2018-02-19T21:36:08.168Z,-2.40
2018-02-19T21:38:35.691Z,-2.50
2018-02-19T21:41:03.194Z,-2.60
2018-02-19T21:43:30.691Z,-2.60
2018-02-19T21:45:58.212Z,-2.60
2018-02-19T21:48:25.721Z,-2.70
2018-02-19T21:50:53.263Z,-2.60
2018-02-19T21:53:20.769Z,-2.70
2018-02-19T21:55:49.056Z,-2.80
2018-02-19T21:58:16.579Z,-2.80
2018-02-19T22:00:44.092Z,-2.90
2018-02-19T22:03:11.612Z,-2.90
2018-02-19T22:05:39.916Z,-2.90
2018-02-19T22:08:07.413Z,-3.00
2018-02-19T22:10:34.925Z,-2.90
2018-02-19T22:13:02.446Z,-3.00
2018-02-19T22:15:29.963Z,-2.90
2018-02-19T22:17:57.485Z,-3.00
2018-02-19T22:20:25.787Z,-3.00
2018-02-19T22:22:53.292Z,-3.00
2018-02-19T22:25:20.837Z,-3.00
2018-02-19T22:27:48.352Z,-3.10
2018-02-19T22:30:15.855Z,-3.10
2018-02-19T22:32:43.383Z,-3.20
2018-02-19T22:35:10.897Z,-3.20
2018-02-19T22:37:38.400Z,-3.20
2018-02-19T22:40:05.924Z,-3.20
2018-02-19T22:42:34.208Z,-3.20
2018-02-19T22:45:02.497Z,-3.20
2018-02-19T22:47:30.035Z,-3.20
2018-02-19T22:49:58.307Z,-3.20
2018-02-19T22:52:26.591Z,-3.30
2018-02-19T22:54:54.872Z,-3.30
2018-02-19T22:57:22.386Z,-3.30
2018-02-19T22:59:49.898Z,-3.30
2018-02-19T23:02:17.407Z,-3.30
2018-02-19T23:04:44.919Z,-3.30
2018-02-19T23:07:12.440Z,-3.40
2018-02-19T23:09:39.935Z,-3.40
2018-02-19T23:12:07.445Z,-3.50
2018-02-19T23:14:34.983Z,-3.50
2018-02-19T23:17:02.485Z,-3.50
2018-02-19T23:19:30.752Z,-3.60
2018-02-19T23:21:58.275Z,-3.70
2018-02-19T23:24:25.783Z,-3.70
2018-02-19T23:26:54.057Z,-3.90
2018-02-19T23:29:22.360Z,-3.90
2018-02-19T23:31:49.880Z,-4.00
2018-02-19T23:34:18.187Z,-4.00
2018-02-19T23:36:45.718Z,-4.00
2018-02-19T23:39:14.029Z,-4.00
2018-02-19T23:41:41.527Z,-4.00
2018-02-19T23:44:09.051Z,-4.00
2018-02-19T23:46:36.569Z,-4.00
2018-02-19T23:49:04.076Z,-4.10
2018-02-19T23:51:31.594Z,-4.10
2018-02-19T23:53:59.879Z,-4.20
2018-02-19T23:56:27.401Z,-4.20
2018-02-19T23:58:54.923Z,-4.30
